Terminal Aerodrome Forecast
Issued by NWS Cleveland, OH

Home | Current Version | Previous Version | Graphics & Text | Print | Product List | Glossary On
Versions: 1 2 3 4 5 6 7 8 9 10 11 12 13 14 15 16 17 18 19 20 21 22
863
FTUS41 KCLE 200929 AAA
TAFYNG
TAF AMD
KYNG 200929Z 2009/2106 11008KT P6SM OVC150
     FM201100 11008KT 4SM -RA BR OVC040
     FM201300 13010KT 2SM -RA BR OVC020
     FM201700 20008KT 4SM BR OVC005
     FM202100 20005KT P6SM OVC007
     FM210300 18005KT 4SM BR OVC003=

USA.gov is the U.S. government's official web portal to all federal, state and local government web resources and services.